sensor_id;sensor_type;location;lat;lon;timestamp;temperature;humidity
38237;DHT22;50101;49.438;11.098;2023-07-08T00:00:43;23.60;55.50
38237;DHT22;50101;49.438;11.098;2023-07-08T00:03:11;23.60;55.50
38237;DHT22;50101;49.438;11.098;2023-07-08T00:05:37;23.60;55.50
38237;DHT22;50101;49.438;11.098;2023-07-08T00:08:04;23.60;55.50
38237;DHT22;50101;49.438;11.098;2023-07-08T00:10:31;23.50;55.40
38237;DHT22;50101;49.438;11.098;2023-07-08T00:12:58;23.50;55.40
38237;DHT22;50101;49.438;11.098;2023-07-08T00:15:27;23.50;55.40
38237;DHT22;50101;49.438;11.098;2023-07-08T00:17:54;23.50;55.50
38237;DHT22;50101;49.438;11.098;2023-07-08T00:20:27;23.50;55.40
38237;DHT22;50101;49.438;11.098;2023-07-08T00:22:56;23.50;55.40
38237;DHT22;50101;49.438;11.098;2023-07-08T00:25:23;23.50;56.00
38237;DHT22;50101;49.438;11.098;2023-07-08T00:27:50;23.50;55.40
38237;DHT22;50101;49.438;11.098;2023-07-08T00:30:23;23.60;55.50
38237;DHT22;50101;49.438;11.098;2023-07-08T00:32:50;23.50;55.40
38237;DHT22;50101;49.438;11.098;2023-07-08T00:35:22;23.50;54.90
38237;DHT22;50101;49.438;11.098;2023-07-08T00:37:51;23.50;55.40
38237;DHT22;50101;49.438;11.098;2023-07-08T00:40:22;23.50;55.40
38237;DHT22;50101;49.438;11.098;2023-07-08T00:42:49;23.50;55.40
38237;DHT22;50101;49.438;11.098;2023-07-08T00:45:39;23.50;55.40
38237;DHT22;50101;49.438;11.098;2023-07-08T00:48:30;23.50;55.40
38237;DHT22;50101;49.438;11.098;2023-07-08T00:50:58;23.50;55.40
38237;DHT22;50101;49.438;11.098;2023-07-08T00:53:28;23.50;55.00
38237;DHT22;50101;49.438;11.098;2023-07-08T00:55:59;23.50;55.00
38237;DHT22;50101;49.438;11.098;2023-07-08T00:58:39;23.50;55.50
38237;DHT22;50101;49.438;11.098;2023-07-08T01:01:07;23.50;55.40
38237;DHT22;50101;49.438;11.098;2023-07-08T01:03:42;23.50;55.40
38237;DHT22;50101;49.438;11.098;2023-07-08T01:06:11;23.50;55.40
38237;DHT22;50101;49.438;11.098;2023-07-08T01:08:38;23.50;55.40
38237;DHT22;50101;49.438;11.098;2023-07-08T01:11:05;23.50;55.40
38237;DHT22;50101;49.438;11.098;2023-07-08T01:13:38;23.50;55.40
38237;DHT22;50101;49.438;11.098;2023-07-08T01:16:07;23.50;55.40
38237;DHT22;50101;49.438;11.098;2023-07-08T01:18:34;23.60;55.50
38237;DHT22;50101;49.438;11.098;2023-07-08T01:21:26;23.50;55.40
38237;DHT22;50101;49.438;11.098;2023-07-08T01:23:53;23.50;55.40
38237;DHT22;50101;49.438;11.098;2023-07-08T01:26:23;23.50;55.40
38237;DHT22;50101;49.438;11.098;2023-07-08T01:28:52;23.50;55.40
38237;DHT22;50101;49.438;11.098;2023-07-08T01:31:22;23.50;55.40
38237;DHT22;50101;49.438;11.098;2023-07-08T01:33:49;23.50;55.40
38237;DHT22;50101;49.438;11.098;2023-07-08T01:36:17;23.50;54.90
38237;DHT22;50101;49.438;11.098;2023-07-08T01:38:45;23.50;55.40
38237;DHT22;50101;49.438;11.098;2023-07-08T01:41:16;23.50;55.50
38237;DHT22;50101;49.438;11.098;2023-07-08T01:43:43;23.50;55.40
38237;DHT22;50101;49.438;11.098;2023-07-08T01:46:18;23.50;55.40
38237;DHT22;50101;49.438;11.098;2023-07-08T01:48:48;23.50;55.40
38237;DHT22;50101;49.438;11.098;2023-07-08T01:51:16;23.50;55.40
38237;DHT22;50101;49.438;11.098;2023-07-08T01:53:43;23.50;55.40
38237;DHT22;50101;49.438;11.098;2023-07-08T01:56:12;23.50;55.40
38237;DHT22;50101;49.438;11.098;2023-07-08T01:58:39;22.60;54.70
38237;DHT22;50101;49.438;11.098;2023-07-08T02:01:07;23.50;55.40
38237;DHT22;50101;49.438;11.098;2023-07-08T02:03:35;23.50;55.40
38237;DHT22;50101;49.438;11.098;2023-07-08T02:06:03;23.50;54.90
38237;DHT22;50101;49.438;11.098;2023-07-08T02:08:30;23.50;55.40
38237;DHT22;50101;49.438;11.098;2023-07-08T02:10:58;23.50;55.40
38237;DHT22;50101;49.438;11.098;2023-07-08T02:13:25;23.50;55.40
38237;DHT22;50101;49.438;11.098;2023-07-08T02:15:52;23.50;54.90
38237;DHT22;50101;49.438;11.098;2023-07-08T02:18:19;23.50;55.50
38237;DHT22;50101;49.438;11.098;2023-07-08T02:20:46;23.50;55.50
38237;DHT22;50101;49.438;11.098;2023-07-08T02:23:14;23.50;55.40
38237;DHT22;50101;49.438;11.098;2023-07-08T02:25:41;23.40;55.40
38237;DHT22;50101;49.438;11.098;2023-07-08T02:28:08;23.40;55.40
38237;DHT22;50101;49.438;11.098;2023-07-08T02:30:34;23.40;55.40
38237;DHT22;50101;49.438;11.098;2023-07-08T02:33:01;23.70;55.60
38237;DHT22;50101;49.438;11.098;2023-07-08T02:35:30;23.40;54.80
38237;DHT22;50101;49.438;11.098;2023-07-08T02:37:57;23.40;55.40
38237;DHT22;50101;49.438;11.098;2023-07-08T02:40:25;23.50;55.40
38237;DHT22;50101;49.438;11.098;2023-07-08T02:42:52;23.50;55.40
38237;DHT22;50101;49.438;11.098;2023-07-08T02:45:19;23.50;55.40
38237;DHT22;50101;49.438;11.098;2023-07-08T02:47:46;23.40;55.40
38237;DHT22;50101;49.438;11.098;2023-07-08T02:50:13;23.40;55.40
38237;DHT22;50101;49.438;11.098;2023-07-08T02:52:39;23.40;55.30
38237;DHT22;50101;49.438;11.098;2023-07-08T02:55:07;23.50;56.00
38237;DHT22;50101;49.438;11.098;2023-07-08T02:57:33;23.40;55.40
38237;DHT22;50101;49.438;11.098;2023-07-08T03:00:00;23.50;55.40
38237;DHT22;50101;49.438;11.098;2023-07-08T03:02:27;23.40;55.30
38237;DHT22;50101;49.438;11.098;2023-07-08T03:04:54;23.40;55.40
38237;DHT22;50101;49.438;11.098;2023-07-08T03:07:21;23.40;55.40
38237;DHT22;50101;49.438;11.098;2023-07-08T03:09:47;23.50;55.40
38237;DHT22;50101;49.438;11.098;2023-07-08T03:12:14;23.50;55.40
38237;DHT22;50101;49.438;11.098;2023-07-08T03:14:41;23.40;55.40
38237;DHT22;50101;49.438;11.098;2023-07-08T03:17:07;23.40;55.40
38237;DHT22;50101;49.438;11.098;2023-07-08T03:19:34;23.40;55.40
38237;DHT22;50101;49.438;11.098;2023-07-08T03:22:01;23.40;55.40
38237;DHT22;50101;49.438;11.098;2023-07-08T03:24:31;23.40;55.30
38237;DHT22;50101;49.438;11.098;2023-07-08T03:26:58;23.40;55.40
38237;DHT22;50101;49.438;11.098;2023-07-08T03:29:26;23.40;55.40
38237;DHT22;50101;49.438;11.098;2023-07-08T03:31:53;23.40;55.40
38237;DHT22;50101;49.438;11.098;2023-07-08T03:34:20;23.40;55.30
38237;DHT22;50101;49.438;11.098;2023-07-08T03:36:49;23.40;55.40
38237;DHT22;50101;49.438;11.098;2023-07-08T03:39:17;23.40;55.30
38237;DHT22;50101;49.438;11.098;2023-07-08T03:41:44;23.40;55.40
38237;DHT22;50101;49.438;11.098;2023-07-08T03:44:12;23.40;55.40
38237;DHT22;50101;49.438;11.098;2023-07-08T03:46:39;23.40;55.30
38237;DHT22;50101;49.438;11.098;2023-07-08T03:49:10;23.40;55.40
38237;DHT22;50101;49.438;11.098;2023-07-08T03:51:38;23.40;55.40
38237;DHT22;50101;49.438;11.098;2023-07-08T03:54:08;23.40;55.30
38237;DHT22;50101;49.438;11.098;2023-07-08T03:56:35;23.40;55.30
38237;DHT22;50101;49.438;11.098;2023-07-08T03:59:02;23.40;54.80
38237;DHT22;50101;49.438;11.098;2023-07-08T04:01:29;23.40;55.40
38237;DHT22;50101;49.438;11.098;2023-07-08T04:03:57;23.40;55.30
38237;DHT22;50101;49.438;11.098;2023-07-08T04:06:25;23.40;55.30
38237;DHT22;50101;49.438;11.098;2023-07-08T04:08:52;23.40;55.30
38237;DHT22;50101;49.438;11.098;2023-07-08T04:11:21;23.40;55.30
38237;DHT22;50101;49.438;11.098;2023-07-08T04:13:49;23.40;55.30
38237;DHT22;50101;49.438;11.098;2023-07-08T04:16:23;23.40;55.40
38237;DHT22;50101;49.438;11.098;2023-07-08T04:18:51;23.40;55.40
38237;DHT22;50101;49.438;11.098;2023-07-08T04:21:21;23.40;55.30
38237;DHT22;50101;49.438;11.098;2023-07-08T04:23:49;23.40;55.40
38237;DHT22;50101;49.438;11.098;2023-07-08T04:26:16;23.40;55.30
38237;DHT22;50101;49.438;11.098;2023-07-08T04:28:43;23.40;55.30
38237;DHT22;50101;49.438;11.098;2023-07-08T04:31:10;23.40;55.30
38237;DHT22;50101;49.438;11.098;2023-07-08T04:33:37;23.40;55.30
38237;DHT22;50101;49.438;11.098;2023-07-08T04:36:05;23.40;55.30
38237;DHT22;50101;49.438;11.098;2023-07-08T04:38:35;23.40;55.30
38237;DHT22;50101;49.438;11.098;2023-07-08T04:41:03;23.40;55.40
38237;DHT22;50101;49.438;11.098;2023-07-08T04:43:29;23.40;55.30
38237;DHT22;50101;49.438;11.098;2023-07-08T04:45:56;23.40;54.80
38237;DHT22;50101;49.438;11.098;2023-07-08T04:48:23;23.40;55.40
38237;DHT22;50101;49.438;11.098;2023-07-08T04:50:52;23.40;55.40
38237;DHT22;50101;49.438;11.098;2023-07-08T04:53:19;23.40;55.30
38237;DHT22;50101;49.438;11.098;2023-07-08T04:55:54;25.70;56.60
38237;DHT22;50101;49.438;11.098;2023-07-08T04:58:22;23.40;55.40
38237;DHT22;50101;49.438;11.098;2023-07-08T05:00:49;23.40;55.30
38237;DHT22;50101;49.438;11.098;2023-07-08T05:03:15;23.40;55.30
38237;DHT22;50101;49.438;11.098;2023-07-08T05:05:42;23.40;55.30
38237;DHT22;50101;49.438;11.098;2023-07-08T05:08:09;23.40;55.30
38237;DHT22;50101;49.438;11.098;2023-07-08T05:10:36;23.40;55.30
38237;DHT22;50101;49.438;11.098;2023-07-08T05:13:04;23.50;55.40
38237;DHT22;50101;49.438;11.098;2023-07-08T05:15:31;23.50;54.90
38237;DHT22;50101;49.438;11.098;2023-07-08T05:17:58;23.50;55.40
38237;DHT22;50101;49.438;11.098;2023-07-08T05:20:24;23.50;55.40
38237;DHT22;50101;49.438;11.098;2023-07-08T05:22:51;23.50;55.40
38237;DHT22;50101;49.438;11.098;2023-07-08T05:25:18;23.50;55.40
38237;DHT22;50101;49.438;11.098;2023-07-08T05:27:47;23.50;55.40
38237;DHT22;50101;49.438;11.098;2023-07-08T05:30:16;23.50;55.40
38237;DHT22;50101;49.438;11.098;2023-07-08T05:32:43;23.50;55.40
38237;DHT22;50101;49.438;11.098;2023-07-08T05:35:10;23.50;55.40
38237;DHT22;50101;49.438;11.098;2023-07-08T05:37:37;23.50;55.40
38237;DHT22;50101;49.438;11.098;2023-07-08T05:40:07;23.50;55.40
38237;DHT22;50101;49.438;11.098;2023-07-08T05:42:34;23.50;55.40
38237;DHT22;50101;49.438;11.098;2023-07-08T05:45:02;23.60;55.50
38237;DHT22;50101;49.438;11.098;2023-07-08T05:47:28;23.50;55.40
38237;DHT22;50101;49.438;11.098;2023-07-08T05:49:55;23.50;55.40
38237;DHT22;50101;49.438;11.098;2023-07-08T05:52:22;23.50;55.40
38237;DHT22;50101;49.438;11.098;2023-07-08T05:54:49;23.50;54.90
38237;DHT22;50101;49.438;11.098;2023-07-08T05:57:15;23.50;55.40
38237;DHT22;50101;49.438;11.098;2023-07-08T05:59:42;23.50;55.40
38237;DHT22;50101;49.438;11.098;2023-07-08T06:02:12;23.50;55.40
38237;DHT22;50101;49.438;11.098;2023-07-08T06:04:40;23.50;55.40
38237;DHT22;50101;49.438;11.098;2023-07-08T06:07:06;23.50;55.40
38237;DHT22;50101;49.438;11.098;2023-07-08T06:09:34;23.50;55.40
38237;DHT22;50101;49.438;11.098;2023-07-08T06:12:00;23.60;55.50
38237;DHT22;50101;49.438;11.098;2023-07-08T06:14:28;23.60;55.50
38237;DHT22;50101;49.438;11.098;2023-07-08T06:16:55;23.50;54.90
38237;DHT22;50101;49.438;11.098;2023-07-08T06:19:21;23.60;55.60
38237;DHT22;50101;49.438;11.098;2023-07-08T06:21:48;23.60;55.50
38237;DHT22;50101;49.438;11.098;2023-07-08T06:24:15;23.60;55.50
38237;DHT22;50101;49.438;11.098;2023-07-08T06:26:42;23.60;55.50
38237;DHT22;50101;49.438;11.098;2023-07-08T06:29:09;23.60;55.50
38237;DHT22;50101;49.438;11.098;2023-07-08T06:31:36;23.60;55.50
38237;DHT22;50101;49.438;11.098;2023-07-08T06:34:03;23.60;55.00
38237;DHT22;50101;49.438;11.098;2023-07-08T06:36:30;23.60;55.60
38237;DHT22;50101;49.438;11.098;2023-07-08T06:38:57;23.60;55.60
38237;DHT22;50101;49.438;11.098;2023-07-08T06:41:24;23.60;55.60
38237;DHT22;50101;49.438;11.098;2023-07-08T06:43:54;23.60;55.60
38237;DHT22;50101;49.438;11.098;2023-07-08T06:46:21;23.60;55.10
38237;DHT22;50101;49.438;11.098;2023-07-08T06:48:48;23.60;55.50
38237;DHT22;50101;49.438;11.098;2023-07-08T06:51:15;23.60;55.50
38237;DHT22;50101;49.438;11.098;2023-07-08T06:53:42;23.60;55.50
38237;DHT22;50101;49.438;11.098;2023-07-08T06:56:09;23.60;55.50
38237;DHT22;50101;49.438;11.098;2023-07-08T06:58:36;23.70;55.50
38237;DHT22;50101;49.438;11.098;2023-07-08T07:01:02;23.60;55.50
38237;DHT22;50101;49.438;11.098;2023-07-08T07:03:30;23.60;55.50
38237;DHT22;50101;49.438;11.098;2023-07-08T07:05:57;23.60;55.40
38237;DHT22;50101;49.438;11.098;2023-07-08T07:08:24;23.60;55.30
38237;DHT22;50101;49.438;11.098;2023-07-08T07:10:50;23.60;55.30
38237;DHT22;50101;49.438;11.098;2023-07-08T07:13:17;23.60;55.30
38237;DHT22;50101;49.438;11.098;2023-07-08T07:15:44;23.60;54.70
38237;DHT22;50101;49.438;11.098;2023-07-08T07:18:11;23.60;55.30
38237;DHT22;50101;49.438;11.098;2023-07-08T07:20:38;23.60;55.20
38237;DHT22;50101;49.438;11.098;2023-07-08T07:23:04;23.60;55.10
38237;DHT22;50101;49.438;11.098;2023-07-08T07:25:31;23.70;55.30
38237;DHT22;50101;49.438;11.098;2023-07-08T07:27:58;23.70;55.30
38237;DHT22;50101;49.438;11.098;2023-07-08T07:30:25;23.70;55.50
38237;DHT22;50101;49.438;11.098;2023-07-08T07:32:52;23.80;55.60
38237;DHT22;50101;49.438;11.098;2023-07-08T07:35:18;23.70;55.50
38237;DHT22;50101;49.438;11.098;2023-07-08T07:37:45;23.80;55.70
38237;DHT22;50101;49.438;11.098;2023-07-08T07:40:13;23.80;55.70
38237;DHT22;50101;49.438;11.098;2023-07-08T07:42:43;23.80;55.70
38237;DHT22;50101;49.438;11.098;2023-07-08T07:45:11;23.80;55.50
38237;DHT22;50101;49.438;11.098;2023-07-08T07:47:39;23.80;56.00
38237;DHT22;50101;49.438;11.098;2023-07-08T07:50:07;23.80;56.00
38237;DHT22;50101;49.438;11.098;2023-07-08T07:52:36;23.80;56.80
38237;DHT22;50101;49.438;11.098;2023-07-08T07:55:03;23.80;56.10
38237;DHT22;50101;49.438;11.098;2023-07-08T07:57:30;23.80;56.20
38237;DHT22;50101;49.438;11.098;2023-07-08T07:59:57;23.90;56.30
38237;DHT22;50101;49.438;11.098;2023-07-08T08:02:23;23.90;56.20
38237;DHT22;50101;49.438;11.098;2023-07-08T08:04:50;23.90;56.60
38237;DHT22;50101;49.438;11.098;2023-07-08T08:07:17;23.90;56.00
38237;DHT22;50101;49.438;11.098;2023-07-08T08:09:44;23.80;55.90
38237;DHT22;50101;49.438;11.098;2023-07-08T08:12:11;23.90;55.60
38237;DHT22;50101;49.438;11.098;2023-07-08T08:14:38;23.90;55.60
38237;DHT22;50101;49.438;11.098;2023-07-08T08:17:06;23.90;55.60
38237;DHT22;50101;49.438;11.098;2023-07-08T08:19:33;23.90;55.20
38237;DHT22;50101;49.438;11.098;2023-07-08T08:21:59;23.90;55.30
38237;DHT22;50101;49.438;11.098;2023-07-08T08:24:26;23.90;54.90
38237;DHT22;50101;49.438;11.098;2023-07-08T08:26:54;23.90;55.10
38237;DHT22;50101;49.438;11.098;2023-07-08T08:29:21;23.90;55.20
38237;DHT22;50101;49.438;11.098;2023-07-08T08:31:47;23.90;55.30
38237;DHT22;50101;49.438;11.098;2023-07-08T08:34:14;23.90;55.30
38237;DHT22;50101;49.438;11.098;2023-07-08T08:36:41;23.90;55.30
38237;DHT22;50101;49.438;11.098;2023-07-08T08:39:09;24.00;55.10
38237;DHT22;50101;49.438;11.098;2023-07-08T08:41:38;24.00;54.90
38237;DHT22;50101;49.438;11.098;2023-07-08T08:44:05;23.90;55.00
38237;DHT22;50101;49.438;11.098;2023-07-08T08:46:58;23.90;54.80
38237;DHT22;50101;49.438;11.098;2023-07-08T08:49:54;23.90;54.60
38237;DHT22;50101;49.438;11.098;2023-07-08T08:52:23;23.90;54.60
38237;DHT22;50101;49.438;11.098;2023-07-08T08:54:50;23.90;54.50
38237;DHT22;50101;49.438;11.098;2023-07-08T08:57:37;24.00;54.60
38237;DHT22;50101;49.438;11.098;2023-07-08T09:00:09;23.90;54.60
38237;DHT22;50101;49.438;11.098;2023-07-08T09:02:42;23.90;54.30
38237;DHT22;50101;49.438;11.098;2023-07-08T09:05:13;23.90;54.10
38237;DHT22;50101;49.438;11.098;2023-07-08T09:07:45;23.90;54.40
38237;DHT22;50101;49.438;11.098;2023-07-08T09:10:41;23.90;54.50
38237;DHT22;50101;49.438;11.098;2023-07-08T09:13:16;23.90;54.40
38237;DHT22;50101;49.438;11.098;2023-07-08T09:15:46;23.90;54.20
38237;DHT22;50101;49.438;11.098;2023-07-08T09:18:30;23.90;54.10
38237;DHT22;50101;49.438;11.098;2023-07-08T09:21:02;23.90;54.10
38237;DHT22;50101;49.438;11.098;2023-07-08T09:23:35;23.90;53.80
38237;DHT22;50101;49.438;11.098;2023-07-08T09:26:07;23.90;54.10
38237;DHT22;50101;49.438;11.098;2023-07-08T09:28:41;23.90;53.60
38237;DHT22;50101;49.438;11.098;2023-07-08T09:31:21;23.90;53.70
38237;DHT22;50101;49.438;11.098;2023-07-08T09:33:51;23.90;53.80
38237;DHT22;50101;49.438;11.098;2023-07-08T09:36:23;23.90;53.70
38237;DHT22;50101;49.438;11.098;2023-07-08T09:38:50;23.90;54.20
38237;DHT22;50101;49.438;11.098;2023-07-08T09:41:32;23.90;54.00
38237;DHT22;50101;49.438;11.098;2023-07-08T09:44:05;23.90;53.70
38237;DHT22;50101;49.438;11.098;2023-07-08T09:46:36;23.90;53.60
38237;DHT22;50101;49.438;11.098;2023-07-08T09:49:21;23.90;54.00
38237;DHT22;50101;49.438;11.098;2023-07-08T09:51:49;23.90;53.40
38237;DHT22;50101;49.438;11.098;2023-07-08T09:54:21;23.90;53.60
38237;DHT22;50101;49.438;11.098;2023-07-08T09:59:51;23.90;53.90
38237;DHT22;50101;49.438;11.098;2023-07-08T10:05:05;23.90;53.40
38237;DHT22;50101;49.438;11.098;2023-07-08T10:07:37;23.90;53.30
38237;DHT22;50101;49.438;11.098;2023-07-08T10:10:10;23.90;53.20
38237;DHT22;50101;49.438;11.098;2023-07-08T10:12:42;23.90;53.10
38237;DHT22;50101;49.438;11.098;2023-07-08T10:15:34;23.90;52.70
38237;DHT22;50101;49.438;11.098;2023-07-08T10:18:02;23.90;53.40
38237;DHT22;50101;49.438;11.098;2023-07-08T10:23:59;23.90;53.00
38237;DHT22;50101;49.438;11.098;2023-07-08T10:26:33;23.90;53.50
38237;DHT22;50101;49.438;11.098;2023-07-08T10:34:46;24.00;53.20
38237;DHT22;50101;49.438;11.098;2023-07-08T10:39:55;24.10;54.00
38237;DHT22;50101;49.438;11.098;2023-07-08T10:45:23;24.00;54.00
38237;DHT22;50101;49.438;11.098;2023-07-08T10:48:03;24.10;54.30
38237;DHT22;50101;49.438;11.098;2023-07-08T10:53:12;24.10;54.30
38237;DHT22;50101;49.438;11.098;2023-07-08T10:55:58;24.10;54.30
38237;DHT22;50101;49.438;11.098;2023-07-08T11:01:21;24.10;54.30
38237;DHT22;50101;49.438;11.098;2023-07-08T11:06:56;24.10;54.10
38237;DHT22;50101;49.438;11.098;2023-07-08T11:09:44;24.10;54.60
38237;DHT22;50101;49.438;11.098;2023-07-08T11:15:03;24.10;54.80
38237;DHT22;50101;49.438;11.098;2023-07-08T11:17:49;24.10;54.70
38237;DHT22;50101;49.438;11.098;2023-07-08T11:23:15;24.10;54.80
38237;DHT22;50101;49.438;11.098;2023-07-08T11:25:44;24.10;55.40
38237;DHT22;50101;49.438;11.098;2023-07-08T11:28:15;24.10;57.20
38237;DHT22;50101;49.438;11.098;2023-07-08T11:30:44;24.10;56.30
38237;DHT22;50101;49.438;11.098;2023-07-08T11:33:13;24.20;56.00
38237;DHT22;50101;49.438;11.098;2023-07-08T11:35:42;24.10;55.80
38237;DHT22;50101;49.438;11.098;2023-07-08T11:38:15;24.10;55.80
38237;DHT22;50101;49.438;11.098;2023-07-08T11:41:13;24.10;55.80
38237;DHT22;50101;49.438;11.098;2023-07-08T11:43:48;24.10;55.70
38237;DHT22;50101;49.438;11.098;2023-07-08T11:46:22;24.10;55.70
38237;DHT22;50101;49.438;11.098;2023-07-08T11:48:53;24.10;55.50
38237;DHT22;50101;49.438;11.098;2023-07-08T11:51:24;24.10;55.50
38237;DHT22;50101;49.438;11.098;2023-07-08T11:59:19;24.10;55.20
38237;DHT22;50101;49.438;11.098;2023-07-08T12:01:54;24.10;55.10
38237;DHT22;50101;49.438;11.098;2023-07-08T12:04:30;24.10;55.00
38237;DHT22;50101;49.438;11.098;2023-07-08T12:07:15;24.10;54.90
38237;DHT22;50101;49.438;11.098;2023-07-08T12:09:49;24.10;54.90
38237;DHT22;50101;49.438;11.098;2023-07-08T12:12:22;24.00;54.60
38237;DHT22;50101;49.438;11.098;2023-07-08T12:14:52;24.10;53.00
38237;DHT22;50101;49.438;11.098;2023-07-08T12:17:20;24.10;53.40
38237;DHT22;50101;49.438;11.098;2023-07-08T12:19:47;24.10;53.90
38237;DHT22;50101;49.438;11.098;2023-07-08T12:22:15;24.00;54.10
38237;DHT22;50101;49.438;11.098;2023-07-08T12:24:42;24.00;54.10
38237;DHT22;50101;49.438;11.098;2023-07-08T12:27:10;24.10;53.80
38237;DHT22;50101;49.438;11.098;2023-07-08T12:29:37;24.10;53.80
38237;DHT22;50101;49.438;11.098;2023-07-08T12:32:05;24.10;53.50
38237;DHT22;50101;49.438;11.098;2023-07-08T12:34:32;26.10;54.80
38237;DHT22;50101;49.438;11.098;2023-07-08T12:36:59;24.10;53.20
38237;DHT22;50101;49.438;11.098;2023-07-08T12:39:26;24.10;53.20
38237;DHT22;50101;49.438;11.098;2023-07-08T12:41:53;24.10;53.00
38237;DHT22;50101;49.438;11.098;2023-07-08T12:44:24;24.20;52.30
38237;DHT22;50101;49.438;11.098;2023-07-08T12:46:55;24.10;52.60
38237;DHT22;50101;49.438;11.098;2023-07-08T12:49:22;24.10;52.40
38237;DHT22;50101;49.438;11.098;2023-07-08T12:51:54;24.20;51.70
38237;DHT22;50101;49.438;11.098;2023-07-08T12:54:20;24.10;52.10
38237;DHT22;50101;49.438;11.098;2023-07-08T12:56:48;24.20;51.80
38237;DHT22;50101;49.438;11.098;2023-07-08T12:59:21;24.20;52.60
38237;DHT22;50101;49.438;11.098;2023-07-08T13:01:50;24.20;52.80
38237;DHT22;50101;49.438;11.098;2023-07-08T13:04:18;24.20;52.90
38237;DHT22;50101;49.438;11.098;2023-07-08T13:06:47;24.20;52.60
38237;DHT22;50101;49.438;11.098;2023-07-08T13:09:37;24.20;52.70
38237;DHT22;50101;49.438;11.098;2023-07-08T13:12:25;24.10;52.70
38237;DHT22;50101;49.438;11.098;2023-07-08T13:14:54;24.20;53.00
38237;DHT22;50101;49.438;11.098;2023-07-08T13:17:22;24.10;52.80
38237;DHT22;50101;49.438;11.098;2023-07-08T13:19:49;24.20;52.00
38237;DHT22;50101;49.438;11.098;2023-07-08T13:22:19;24.20;52.70
38237;DHT22;50101;49.438;11.098;2023-07-08T13:24:47;24.10;52.70
38237;DHT22;50101;49.438;11.098;2023-07-08T13:27:23;24.20;52.80
38237;DHT22;50101;49.438;11.098;2023-07-08T13:29:55;24.20;52.70
38237;DHT22;50101;49.438;11.098;2023-07-08T13:32:30;24.10;52.50
38237;DHT22;50101;49.438;11.098;2023-07-08T13:34:57;24.20;52.60
38237;DHT22;50101;49.438;11.098;2023-07-08T13:37:24;24.10;52.60
38237;DHT22;50101;49.438;11.098;2023-07-08T13:39:53;24.20;52.60
38237;DHT22;50101;49.438;11.098;2023-07-08T13:42:21;24.20;52.40
38237;DHT22;50101;49.438;11.098;2023-07-08T13:44:48;24.20;51.90
38237;DHT22;50101;49.438;11.098;2023-07-08T13:47:26;24.20;52.30
38237;DHT22;50101;49.438;11.098;2023-07-08T13:50:00;24.20;52.50
38237;DHT22;50101;49.438;11.098;2023-07-08T13:52:30;24.20;52.50
38237;DHT22;50101;49.438;11.098;2023-07-08T13:55:02;24.20;52.50
38237;DHT22;50101;49.438;11.098;2023-07-08T13:57:38;24.20;52.50
38237;DHT22;50101;49.438;11.098;2023-07-08T14:00:06;24.30;52.50
38237;DHT22;50101;49.438;11.098;2023-07-08T14:02:34;24.30;52.60
38237;DHT22;50101;49.438;11.098;2023-07-08T14:05:02;24.30;52.70
38237;DHT22;50101;49.438;11.098;2023-07-08T14:07:32;24.20;52.50
38237;DHT22;50101;49.438;11.098;2023-07-08T14:09:59;24.20;52.60
38237;DHT22;50101;49.438;11.098;2023-07-08T14:12:26;24.20;52.70
38237;DHT22;50101;49.438;11.098;2023-07-08T14:14:53;24.20;52.70
38237;DHT22;50101;49.438;11.098;2023-07-08T14:17:25;24.30;52.80
38237;DHT22;50101;49.438;11.098;2023-07-08T14:19:52;24.20;52.70
38237;DHT22;50101;49.438;11.098;2023-07-08T14:22:25;24.20;52.80
38237;DHT22;50101;49.438;11.098;2023-07-08T14:24:53;24.20;52.70
38237;DHT22;50101;49.438;11.098;2023-07-08T14:27:20;24.20;52.70
38237;DHT22;50101;49.438;11.098;2023-07-08T14:29:49;24.20;52.80
38237;DHT22;50101;49.438;11.098;2023-07-08T14:32:22;24.20;52.90
38237;DHT22;50101;49.438;11.098;2023-07-08T14:34:56;24.20;52.90
38237;DHT22;50101;49.438;11.098;2023-07-08T14:37:23;24.20;52.40
38237;DHT22;50101;49.438;11.098;2023-07-08T14:39:50;24.30;52.90
38237;DHT22;50101;49.438;11.098;2023-07-08T14:42:18;24.30;52.80
38237;DHT22;50101;49.438;11.098;2023-07-08T14:44:48;24.30;52.80
38237;DHT22;50101;49.438;11.098;2023-07-08T14:47:17;24.30;52.70
38237;DHT22;50101;49.438;11.098;2023-07-08T14:49:44;24.40;52.80
38237;DHT22;50101;49.438;11.098;2023-07-08T14:52:11;24.40;52.80
38237;DHT22;50101;49.438;11.098;2023-07-08T14:54:39;24.40;52.90
38237;DHT22;50101;49.438;11.098;2023-07-08T14:57:07;24.40;52.90
38237;DHT22;50101;49.438;11.098;2023-07-08T14:59:35;24.40;52.80
38237;DHT22;50101;49.438;11.098;2023-07-08T15:02:13;24.40;52.80
38237;DHT22;50101;49.438;11.098;2023-07-08T15:04:43;24.40;52.90
38237;DHT22;50101;49.438;11.098;2023-07-08T15:07:10;24.40;53.00
38237;DHT22;50101;49.438;11.098;2023-07-08T15:09:36;24.30;53.00
38237;DHT22;50101;49.438;11.098;2023-07-08T15:12:03;24.40;53.20
38237;DHT22;50101;49.438;11.098;2023-07-08T15:14:30;24.30;53.00
38237;DHT22;50101;49.438;11.098;2023-07-08T15:16:57;24.40;53.10
38237;DHT22;50101;49.438;11.098;2023-07-08T15:19:24;24.40;53.10
38237;DHT22;50101;49.438;11.098;2023-07-08T15:21:51;24.40;53.20
38237;DHT22;50101;49.438;11.098;2023-07-08T15:24:18;24.30;53.10
38237;DHT22;50101;49.438;11.098;2023-07-08T15:26:46;24.30;53.10
38237;DHT22;50101;49.438;11.098;2023-07-08T15:29:21;24.30;53.10
38237;DHT22;50101;49.438;11.098;2023-07-08T15:31:49;24.30;53.10
38237;DHT22;50101;49.438;11.098;2023-07-08T15:34:22;24.30;53.20
38237;DHT22;50101;49.438;11.098;2023-07-08T15:36:49;24.30;53.20
38237;DHT22;50101;49.438;11.098;2023-07-08T15:39:16;24.30;53.20
38237;DHT22;50101;49.438;11.098;2023-07-08T15:41:43;24.40;53.30
38237;DHT22;50101;49.438;11.098;2023-07-08T15:44:12;24.40;53.30
38237;DHT22;50101;49.438;11.098;2023-07-08T15:46:49;24.40;53.20
38237;DHT22;50101;49.438;11.098;2023-07-08T15:49:19;24.40;53.20
38237;DHT22;50101;49.438;11.098;2023-07-08T15:51:46;24.40;53.20
38237;DHT22;50101;49.438;11.098;2023-07-08T15:54:17;24.40;53.20
38237;DHT22;50101;49.438;11.098;2023-07-08T15:56:45;24.40;53.20
38237;DHT22;50101;49.438;11.098;2023-07-08T15:59:25;24.40;53.20
38237;DHT22;50101;49.438;11.098;2023-07-08T16:01:53;24.30;53.20
38237;DHT22;50101;49.438;11.098;2023-07-08T16:04:28;24.30;53.30
38237;DHT22;50101;49.438;11.098;2023-07-08T16:06:57;24.30;53.40
38237;DHT22;50101;49.438;11.098;2023-07-08T16:09:24;24.30;53.50